KOKK/OKK METAR and TAF weather

Enter ICAO airport designator
Station Type Date Time Source
KOKK METAR 2019/10/21 04:56 UTC NOAA

KOKK 210456Z AUTO 10006KT 10SM OVC070 14/09 A2990 RMK AO2 SLP125 T01390089


Station Type Date Time Source
KOKK Decoded METAR 2019/10/21 04:56 UTC NOAA

Kokomo, Kokomo Municipal Airport, IN, United States (KOKK) 40-32N 086-04W
Oct 21, 2019 - 12:56 AM EDT / 2019.10.21 0456 UTC
Wind: from the E (100 degrees) at 7 MPH (6 KT):0
Visibility: 10 mile(s):0
Sky conditions: overcast
Temperature: 57.0 F (13.9 C)
Dew Point: 48.0 F (8.9 C)
Relative Humidity: 71%
Pressure (altimeter): 29.9 in. Hg (1012 hPa)
ob: KOKK 210456Z AUTO 10006KT 10SM OVC070 14/09 A2990 RMK AO2 SLP125 T01390089
cycle: 5

Station Type Date Time Source
KOKK TAF UTC NOAA

Error!

Example: see airport list